Nearby METAR Reports

 

KHCR - Heber/Russ Mcdon, Utah, USA
Distance from station: SSW 18mi, 29km
Updated: Thu, 05-Dec-2019 10:15am MST
Overcast
Overcast
 Wind from calm
Wind: Calm
Temperature: 37°F , 3°C
Dew Point: 32°F , 0°C
Humidity: 81%
Barometer: 30.06 inHg , 1017.9 hPa
Clouds: Overcast
Visibility: 10 miles , 16 km
Cloud details: Partly cloudy 3700 ft
Overcast 5000 ft
2019/12/05 17:15 KHCR 051715Z AUTO 00000KT 10SM SCT037 OVC050 03/00 A3006 RMK AO2
KSLC - Salt Lake City, Utah, USA
Distance from station: W 35mi, 57km
Updated: Thu, 05-Dec-2019 9:54am MST
Light rain, Mist, Overcast
Light rain, Mist, Overcast
 Wind from calm
Wind: Calm
Temperature: 36°F , 2°C
Dew Point: 34°F , 1°C
Humidity: 93%
Barometer: 30.12 inHg , 1020 hPa
Summary: Light rain, Mist
Clouds: Overcast
Visibility: 1 mile , 2 km
Cloud details: Overcast 700 ft
2019/12/05 16:54 KSLC 051654Z 00000KT 1SM R16L/6000VP6000FT -RA BR OVC007 02/01 A3012 RMK AO2 SFC VIS 1 3/4 RAB16SNE16 SLP208 P0001 I1000 T00170011
 
KU42 - Salt Lake Muni, Utah, USA
Distance from station: WSW 37mi, 59km
Updated: Thu, 05-Dec-2019 10:15am MST
Overcast
Overcast
 Wind from calm
Wind: Calm
Temperature: 32°F , 0°C
Dew Point: 32°F , 0°C
Humidity: 100%
Barometer: 30.13 inHg , 1020.3 hPa
Clouds: Overcast
Visibility: 3/4 mile , 1.2 km
Cloud details: Overcast 200 ft
2019/12/05 17:15 KU42 051715Z AUTO 00000KT 3/4SM OVC002 00/00 A3013 RMK AO1 T00020002
KEVW - Evanston, Wyoming, USA
Distance from station: NNE 40mi, 64km
Updated: Thu, 05-Dec-2019 10:32am MST
Overcast
Overcast
 Wind from SW
Wind: SW 9 mph , 15 km/h
Temperature: 30°F , -1°C
Wind Chill: 22°F , -6°C
Dew Point: 28°F , -2°C
Humidity: 93%
Barometer: 30.07 inHg , 1018.3 hPa
Clouds: Overcast
Visibility: 10 miles , 16 km
Cloud details: Partly cloudy 1000 ft
Overcast 6000 ft
2019/12/05 17:32 KEVW 051732Z AUTO 22008KT 10SM SCT010 OVC060 M01/M02 A3007 RMK AO2 T10061017
 
KPVU - Provo Muni, Utah, USA
Distance from station: SSW 41mi, 67km
Updated: Thu, 05-Dec-2019 10:03am MST
Mist, Overcast
Mist, Overcast
 Wind from WNW
Wind: WNW 6 mph , 9 km/h
Temperature: 37°F , 3°C
Wind Chill: 32°F , 0°C
Dew Point: 36°F , 2°C
Humidity: 93%
Barometer: 30.12 inHg , 1020 hPa
Summary: Mist
Clouds: Overcast
Visibility: 2 miles , 3 km
Cloud details: Overcast 3200 ft
2019/12/05 17:03 KPVU 051703Z 30005KT 2SM BR OVC032 03/02 A3012 RMK AO2
KHIF - Hill Afb/Ogden, Utah, USA
Distance from station: NW 45mi, 72km
Updated: Thu, 05-Dec-2019 9:58am MST
Mist, Overcast
Mist, Overcast
 Wind from S
Wind: S 3 mph , 6 km/h
Temperature: 34°F , 1°C
Dew Point: 34°F , 1°C
Humidity: 100%
Barometer: 30.10 inHg , 1019.3 hPa
Summary: Mist
Clouds: Overcast
Visibility: 6 miles , 10 km
Cloud details: Mostly cloudy 800 ft
Overcast 1300 ft
2019/12/05 16:58 KHIF 051658Z 17003KT 6SM BR BKN008 OVC013 01/01 A3010 RMK AO2A VIS S 3 BKN V OVC SLP203 T00130012
 
KOGD - Ogden, Utah, USA
Distance from station: NW 50mi, 81km
Updated: Thu, 05-Dec-2019 9:53am MST
Mist, Overcast
Mist, Overcast
 Wind from SSE
Wind: SSE 5 mph , 7 km/h
Temperature: 30°F , -1°C
Wind Chill: 25°F , -4°C
Dew Point: 30°F , -1°C
Humidity: 100%
Barometer: 30.10 inHg , 1019.3 hPa
Summary: Mist
Clouds: Overcast
Visibility: 1 mile , 2 km
Cloud details: Partly cloudy 1500 ft
Overcast 2400 ft
2019/12/05 16:53 KOGD 051653Z 16004KT 1SM BR SCT015 OVC024 M01/M01 A3010 RMK AO2 SLP209 T10111011 $